Time;durP1;ratioP1;P1;durP2;ratioP2;P2;SDS_P1;SDS_P2;PMS_P1;PMS_P2;Temp;Humidity;BMP_temperature;BMP_pressure;BME280_temperature;BME280_humidity;BME280_pressure;Samples;Min_cycle;Max_cycle;Signal;HPM_P1;HPM_P2
2020/12/15 06:02:38;;;;;;;8.30;5.30;;;4.70;97.30;;;;;;5025337;23;20477;-75
2020/12/15 06:05:05;;;;;;;9.50;5.90;;;4.70;97.30;;;;;;4915975;29;20425;-75
2020/12/15 06:07:33;;;;;;;8.80;5.20;;;4.80;97.30;;;;;;4916876;29;20763;-75
2020/12/15 06:09:59;;;;;;;11.77;6.17;;;4.80;97.30;;;;;;4916587;29;20468;-75
2020/12/15 06:12:25;;;;;;;11.73;6.03;;;4.90;97.30;;;;;;4916851;29;20452;-75
2020/12/15 06:14:52;;;;;;;11.00;5.90;;;4.90;97.30;;;;;;4916553;29;20424;-75
2020/12/15 06:17:21;;;;;;;14.40;5.53;;;4.90;97.30;;;;;;4916462;29;20428;-76
2020/12/15 06:19:54;;;;;;;9.67;5.80;;;4.90;97.30;;;;;;4922146;29;20463;-73
2020/12/15 06:22:25;;;;;;;13.10;6.27;;;5.00;97.30;;;;;;4927357;29;20472;-73
2020/12/15 06:25:00;;;;;;;11.47;6.00;;;5.10;97.30;;;;;;4924297;29;20536;-74
2020/12/15 06:27:36;;;;;;;14.67;6.90;;;5.10;97.30;;;;;;4925132;29;20415;-74
2020/12/15 06:30:06;;;;;;;11.30;6.53;;;5.20;97.30;;;;;;4923622;29;20857;-74
2020/12/15 06:32:32;;;;;;;11.60;6.07;;;5.30;97.30;;;;;;4924148;29;20526;-72
2020/12/15 06:34:58;;;;;;;14.17;6.10;;;5.30;97.30;;;;;;4925356;29;20873;-73
2020/12/15 06:37:25;;;;;;;10.00;5.97;;;5.40;97.30;;;;;;4925301;29;20207;-73
2020/12/15 06:40:03;;;;;;;10.07;6.57;;;5.50;97.30;;;;;;4923021;29;20432;-74
2020/12/15 06:42:29;;;;;;;10.63;5.13;;;5.50;97.30;;;;;;4921434;29;20747;-74
2020/12/15 06:45:11;;;;;;;11.70;6.57;;;5.50;97.30;;;;;;4926596;29;20423;-74
2020/12/15 06:47:38;;;;;;;14.30;6.13;;;5.50;97.30;;;;;;4919039;29;20408;-74
2020/12/15 06:50:13;;;;;;;11.27;6.27;;;5.50;97.30;;;;;;4923308;29;20448;-73
2020/12/15 06:52:39;;;;;;;12.00;6.03;;;5.50;97.30;;;;;;4921232;29;20534;-74
2020/12/15 06:55:05;;;;;;;11.00;6.40;;;5.60;97.30;;;;;;4917956;29;20472;-73
2020/12/15 06:57:33;;;;;;;10.30;6.20;;;5.60;97.30;;;;;;4922336;29;20455;-74
2020/12/15 07:00:04;;;;;;;7.53;5.23;;;5.60;97.30;;;;;;4921560;29;20420;-74
2020/12/15 07:02:31;;;;;;;10.97;6.30;;;5.60;97.30;;;;;;4923876;29;20463;-74
2020/12/15 07:05:23;;;;;;;10.23;6.20;;;5.60;97.30;;;;;;4917954;29;20416;-74
2020/12/15 07:07:53;;;;;;;10.40;5.53;;;5.70;97.30;;;;;;4924679;29;20416;-74
2020/12/15 07:10:20;;;;;;;10.47;6.30;;;5.70;97.30;;;;;;4923197;29;20848;-73
2020/12/15 07:12:48;;;;;;;11.07;5.87;;;5.70;97.30;;;;;;4926199;29;20930;-74
2020/12/15 07:15:15;;;;;;;11.17;6.13;;;5.70;97.30;;;;;;4925065;29;20466;-74
2020/12/15 07:17:49;;;;;;;9.60;6.03;;;5.70;97.30;;;;;;4923069;29;20404;-73
2020/12/15 07:20:16;;;;;;;9.67;5.70;;;5.70;97.30;;;;;;4922555;29;20424;-74
2020/12/15 07:22:42;;;;;;;10.57;6.53;;;5.70;97.30;;;;;;4924401;29;20964;-74
2020/12/15 07:25:10;;;;;;;11.77;6.70;;;5.70;97.30;;;;;;4925390;29;20880;-74
2020/12/15 07:27:37;;;;;;;13.60;6.40;;;5.70;97.30;;;;;;4925797;29;20937;-74
2020/12/15 07:30:08;;;;;;;9.80;6.10;;;5.60;97.30;;;;;;4923154;29;20480;-74
2020/12/15 07:32:38;;;;;;;13.70;6.13;;;5.60;97.30;;;;;;4925426;29;20428;-74
2020/12/15 07:35:07;;;;;;;10.60;6.03;;;5.70;97.30;;;;;;4923043;29;20942;-74
2020/12/15 07:37:42;;;;;;;10.60;6.67;;;5.60;97.30;;;;;;4924785;29;20417;-73
2020/12/15 07:40:11;;;;;;;11.33;5.70;;;5.60;97.30;;;;;;4920880;29;20420;-74
2020/12/15 07:42:38;;;;;;;13.40;6.23;;;5.60;97.30;;;;;;4912896;29;20527;-74
2020/12/15 07:45:09;;;;;;;11.70;6.83;;;5.60;97.30;;;;;;4915403;29;20424;-74
2020/12/15 07:47:43;;;;;;;16.90;6.90;;;5.70;97.30;;;;;;4903591;29;20457;-73
2020/12/15 07:50:10;;;;;;;12.60;6.57;;;5.70;97.30;;;;;;4915511;29;20504;-74
2020/12/15 07:52:37;;;;;;;10.93;6.33;;;5.70;97.30;;;;;;4918165;29;20433;-74
2020/12/15 07:55:13;;;;;;;13.27;6.40;;;5.70;97.30;;;;;;4920126;29;20507;-74
2020/12/15 07:57:40;;;;;;;12.20;5.80;;;5.70;97.30;;;;;;4919279;29;20475;-73
2020/12/15 08:00:11;;;;;;;11.67;6.43;;;5.70;97.30;;;;;;4919152;29;20794;-74
2020/12/15 08:02:38;;;;;;;10.90;6.27;;;5.70;97.30;;;;;;4919030;29;20523;-73
2020/12/15 08:05:18;;;;;;;14.03;6.40;;;5.70;97.30;;;;;;4918942;29;20427;-74
2020/12/15 08:07:56;;;;;;;14.43;6.10;;;5.70;97.30;;;;;;4918963;29;20427;-74
2020/12/15 08:10:24;;;;;;;11.77;6.53;;;5.70;97.30;;;;;;4918694;29;20460;-73
2020/12/15 08:12:51;;;;;;;18.87;7.53;;;5.70;97.30;;;;;;4918682;29;20425;-74
2020/12/15 08:15:17;;;;;;;13.10;6.23;;;5.70;97.30;;;;;;4918539;29;20782;-74
2020/12/15 08:17:48;;;;;;;12.13;6.50;;;5.80;97.30;;;;;;4918782;29;20417;-74
2020/12/15 08:20:17;;;;;;;13.13;6.70;;;5.80;97.30;;;;;;4918614;29;20424;-73
2020/12/15 08:22:45;;;;;;;14.47;7.20;;;5.80;97.30;;;;;;4919650;29;20428;-74
2020/12/15 08:25:13;;;;;;;15.67;8.10;;;5.90;97.30;;;;;;4918406;29;20922;-74
2020/12/15 08:27:38;;;;;;;11.70;6.03;;;6.00;97.30;;;;;;4917852;29;20499;-73
2020/12/15 08:30:23;;;;;;;15.30;6.77;;;6.00;97.30;;;;;;4919591;29;20970;-74
2020/12/15 08:32:50;;;;;;;12.37;6.80;;;6.10;97.30;;;;;;4918324;29;20185;-74
2020/12/15 08:35:26;;;;;;;11.57;7.20;;;6.10;97.30;;;;;;4917820;29;20425;-74
2020/12/15 08:38:01;;;;;;;14.73;6.80;;;6.10;97.30;;;;;;4918415;29;20545;-73
2020/12/15 08:40:28;;;;;;;13.33;7.50;;;6.20;97.30;;;;;;4919559;29;20819;-74
2020/12/15 08:42:58;;;;;;;14.77;7.43;;;6.20;97.30;;;;;;4918319;29;20427;-74
2020/12/15 08:45:25;;;;;;;15.07;7.20;;;6.20;97.30;;;;;;4918266;29;20507;-74
2020/12/15 08:47:52;;;;;;;13.00;7.40;;;6.20;97.30;;;;;;4918279;29;20520;-74
2020/12/15 08:50:17;;;;;;;15.20;8.57;;;6.20;97.30;;;;;;4917952;29;20464;-74
2020/12/15 08:52:44;;;;;;;14.43;7.57;;;6.20;97.30;;;;;;4918556;29;20440;-74
2020/12/15 08:55:10;;;;;;;15.10;6.97;;;6.30;97.30;;;;;;4917984;29;20212;-74
2020/12/15 08:57:36;;;;;;;16.07;7.60;;;6.30;97.30;;;;;;4919064;29;20974;-74
2020/12/15 09:00:21;;;;;;;14.80;7.47;;;6.30;97.30;;;;;;4919139;29;20512;-74
2020/12/15 09:02:47;;;;;;;14.10;7.87;;;6.40;97.30;;;;;;4919536;29;20460;-74
2020/12/15 09:05:13;;;;;;;12.50;6.40;;;6.40;97.30;;;;;;4917777;29;20431;-74
2020/12/15 09:07:39;;;;;;;12.30;6.93;;;6.40;97.30;;;;;;4917914;29;20433;-74
2020/12/15 09:10:12;;;;;;;16.70;8.03;;;6.40;97.30;;;;;;4918949;29;20204;-73
2020/12/15 09:12:46;;;;;;;15.23;7.83;;;6.40;97.30;;;;;;4917787;29;20427;-73
2020/12/15 09:15:12;;;;;;;16.73;7.93;;;6.50;97.30;;;;;;4917653;29;20428;-74
2020/12/15 09:17:39;;;;;;;17.90;8.27;;;6.50;97.30;;;;;;4917726;29;20960;-74
2020/12/15 09:20:06;;;;;;;17.37;7.73;;;6.60;97.30;;;;;;4917783;29;20495;-73
2020/12/15 09:22:32;;;;;;;16.07;7.90;;;6.60;97.30;;;;;;4918857;29;20433;-74
2020/12/15 09:25:01;;;;;;;17.40;8.50;;;6.70;97.30;;;;;;4917438;29;20774;-74
2020/12/15 09:27:28;;;;;;;16.53;7.90;;;6.70;97.30;;;;;;4917572;29;20790;-74
2020/12/15 09:29:54;;;;;;;15.63;8.43;;;6.80;97.30;;;;;;4917359;29;20993;-74
2020/12/15 09:32:20;;;;;;;19.07;9.10;;;6.80;97.30;;;;;;4917416;29;20445;-74
2020/12/15 09:34:47;;;;;;;18.13;8.43;;;6.90;97.30;;;;;;4918508;29;20172;-74
2020/12/15 09:37:13;;;;;;;17.40;8.20;;;6.90;97.30;;;;;;4917407;29;20425;-73
2020/12/15 09:39:42;;;;;;;14.33;7.60;;;7.00;97.30;;;;;;4918536;29;20507;-74
2020/12/15 09:42:08;;;;;;;13.60;7.87;;;7.00;97.30;;;;;;4916959;29;20452;-73
2020/12/15 09:44:36;;;;;;;19.97;9.20;;;7.10;97.30;;;;;;4916978;29;20509;-74
2020/12/15 09:47:03;;;;;;;15.47;8.20;;;7.10;97.30;;;;;;4917452;29;20271;-73
2020/12/15 09:49:29;;;;;;;19.80;8.07;;;7.20;97.30;;;;;;4917014;29;20488;-74
2020/12/15 09:51:55;;;;;;;16.70;8.20;;;7.20;97.30;;;;;;4916796;29;20476;-74
2020/12/15 09:54:20;;;;;;;21.60;9.70;;;7.20;97.30;;;;;;4916847;29;20191;-74
2020/12/15 09:56:46;;;;;;;18.03;9.47;;;7.30;97.30;;;;;;4916891;29;20191;-74
2020/12/15 09:59:12;;;;;;;16.10;8.50;;;7.30;97.30;;;;;;4918231;29;20265;-74
2020/12/15 10:01:41;;;;;;;19.70;8.80;;;7.40;97.30;;;;;;4916849;29;20231;-73
2020/12/15 10:04:07;;;;;;;20.83;9.20;;;7.50;97.30;;;;;;4916603;29;20425;-74
2020/12/15 10:06:33;;;;;;;18.00;8.20;;;7.50;97.30;;;;;;4917788;29;20533;-73
2020/12/15 10:08:59;;;;;;;16.33;8.63;;;7.60;97.10;;;;;;4918016;29;20227;-74
2020/12/15 10:11:25;;;;;;;15.90;8.70;;;7.70;97.20;;;;;;4916714;29;21057;-74
2020/12/15 10:13:51;;;;;;;14.70;8.53;;;7.70;97.00;;;;;;4916538;29;20548;-74
2020/12/15 10:16:17;;;;;;;15.20;8.13;;;7.70;97.00;;;;;;4916865;29;20181;-74
2020/12/15 10:18:42;;;;;;;15.93;8.27;;;7.80;96.90;;;;;;4916891;29;20427;-73
2020/12/15 10:21:08;;;;;;;18.37;8.80;;;7.70;96.80;;;;;;4918048;29;20220;-74
2020/12/15 10:23:35;;;;;;;19.53;9.73;;;7.80;97.20;;;;;;4917878;29;20177;-74
2020/12/15 10:26:02;;;;;;;21.50;9.67;;;7.80;96.60;;;;;;4916817;29;20188;-74
2020/12/15 10:28:28;;;;;;;19.03;8.83;;;7.80;96.60;;;;;;4916553;29;20457;-73
2020/12/15 10:30:53;;;;;;;16.90;7.97;;;7.80;96.80;;;;;;4917791;29;20990;-74
2020/12/15 10:33:19;;;;;;;16.43;8.70;;;7.80;96.80;;;;;;4917683;29;20207;-74
2020/12/15 10:35:45;;;;;;;14.90;8.27;;;7.80;96.80;;;;;;4917700;29;20547;-74
2020/12/15 10:38:11;;;;;;;18.17;9.30;;;7.90;96.90;;;;;;4917858;29;20180;-74
2020/12/15 10:40:36;;;;;;;16.43;8.77;;;7.90;96.50;;;;;;4916383;29;20208;-74
2020/12/15 10:43:02;;;;;;;18.87;8.60;;;7.90;96.80;;;;;;4916160;29;20182;-74
2020/12/15 10:45:28;;;;;;;16.43;8.23;;;8.00;96.80;;;;;;4916555;29;20180;-74
2020/12/15 10:47:53;;;;;;;21.50;8.70;;;8.00;96.50;;;;;;4916361;29;20428;-73
2020/12/15 10:50:19;;;;;;;18.87;8.43;;;8.10;96.40;;;;;;4916346;29;20200;-74
2020/12/15 10:52:45;;;;;;;16.50;8.37;;;8.10;96.50;;;;;;4915951;29;20197;-74
2020/12/15 10:55:11;;;;;;;14.60;8.43;;;8.10;96.50;;;;;;4915961;29;20528;-74
2020/12/15 10:57:37;;;;;;;14.90;8.87;;;8.20;96.80;;;;;;4917422;29;20255;-74
2020/12/15 11:00:05;;;;;;;14.67;8.37;;;8.20;96.30;;;;;;4917415;29;20176;-74
2020/12/15 11:02:30;;;;;;;16.43;8.93;;;8.20;96.70;;;;;;4915721;29;20460;-74
2020/12/15 11:04:56;;;;;;;17.60;8.80;;;8.30;96.70;;;;;;4916856;29;20420;-73
2020/12/15 11:07:22;;;;;;;16.70;8.60;;;8.30;96.60;;;;;;4917275;29;20180;-73
2020/12/15 11:09:47;;;;;;;18.30;9.27;;;8.30;96.60;;;;;;4916054;29;20621;-74
2020/12/15 11:12:13;;;;;;;19.50;8.90;;;8.40;96.50;;;;;;4916032;29;20234;-74
2020/12/15 11:14:39;;;;;;;18.77;9.83;;;8.40;96.80;;;;;;4915845;29;20173;-74
2020/12/15 11:17:04;;;;;;;15.80;9.20;;;8.40;96.80;;;;;;4916011;29;20227;-74
2020/12/15 11:19:30;;;;;;;19.57;8.97;;;8.40;96.70;;;;;;4915939;29;20539;-74
2020/12/15 11:21:56;;;;;;;17.40;9.87;;;8.40;96.50;;;;;;4917152;29;20204;-74
2020/12/15 11:24:22;;;;;;;17.13;8.77;;;8.50;96.70;;;;;;4916867;29;20177;-74
2020/12/15 11:26:51;;;;;;;14.50;8.07;;;8.50;96.50;;;;;;4915224;29;20185;-74
2020/12/15 11:29:16;;;;;;;16.33;7.87;;;8.50;96.40;;;;;;4917076;29;20172;-74
2020/12/15 11:31:42;;;;;;;17.23;8.20;;;8.50;96.20;;;;;;4916981;29;20464;-74
2020/12/15 11:34:08;;;;;;;15.47;8.20;;;8.60;96.10;;;;;;4915775;29;20176;-74
2020/12/15 11:36:33;;;;;;;13.80;7.47;;;8.60;96.10;;;;;;4917015;29;20204;-74
2020/12/15 11:38:59;;;;;;;17.57;8.83;;;8.70;96.00;;;;;;4915836;29;20262;-74
2020/12/15 11:41:28;;;;;;;14.60;7.90;;;8.80;95.60;;;;;;4915930;29;20238;-74
2020/12/15 11:43:55;;;;;;;17.40;7.40;;;8.80;95.40;;;;;;4916810;29;20228;-74
2020/12/15 11:46:21;;;;;;;16.77;8.70;;;8.90;95.40;;;;;;4916017;29;20425;-74
2020/12/15 11:48:47;;;;;;;12.77;7.63;;;8.90;95.40;;;;;;4915629;29;20867;-73
2020/12/15 11:51:18;;;;;;;13.97;7.07;;;9.00;95.20;;;;;;4915697;29;20567;-74
2020/12/15 11:53:43;;;;;;;15.23;7.80;;;9.00;95.10;;;;;;4915531;29;20196;-74
2020/12/15 11:56:09;;;;;;;14.50;7.53;;;9.10;95.10;;;;;;4915638;29;20492;-74
2020/12/15 11:58:34;;;;;;;15.10;8.13;;;9.10;95.40;;;;;;4916597;29;20702;-74
2020/12/15 12:01:01;;;;;;;12.73;7.47;;;9.20;95.00;;;;;;4915453;29;20220;-74
2020/12/15 12:03:26;;;;;;;12.70;7.47;;;9.20;95.10;;;;;;4915687;29;20181;-74
2020/12/15 12:05:52;;;;;;;12.87;7.80;;;9.20;95.00;;;;;;4915572;29;20508;-74
2020/12/15 12:08:17;;;;;;;14.13;7.90;;;9.30;95.20;;;;;;4915561;29;20215;-74
2020/12/15 12:10:43;;;;;;;13.57;7.53;;;9.40;95.00;;;;;;4915366;29;20251;-74
2020/12/15 12:13:09;;;;;;;13.80;7.40;;;9.40;94.80;;;;;;4915331;29;20207;-74
2020/12/15 12:15:35;;;;;;;13.07;7.20;;;9.50;95.20;;;;;;4916494;29;20415;-74
2020/12/15 12:18:00;;;;;;;15.53;7.87;;;9.50;94.70;;;;;;4916593;29;20169;-74
2020/12/15 12:20:29;;;;;;;13.83;6.53;;;9.50;94.60;;;;;;4916384;29;20176;-74
2020/12/15 12:22:55;;;;;;;10.60;6.43;;;9.50;94.30;;;;;;4916519;29;20200;-73
2020/12/15 12:25:21;;;;;;;12.90;6.60;;;9.60;94.20;;;;;;4915232;29;20504;-74
2020/12/15 12:27:46;;;;;;;13.37;6.83;;;9.50;94.10;;;;;;4915402;29;20284;-74
2020/12/15 12:30:12;;;;;;;13.27;6.77;;;9.60;94.40;;;;;;4916454;29;20197;-74
2020/12/15 12:32:38;;;;;;;13.53;7.20;;;9.50;94.60;;;;;;4915443;29;20277;-73
2020/12/15 12:35:04;;;;;;;11.63;6.07;;;9.50;94.30;;;;;;4915237;29;20647;-74
2020/12/15 12:37:32;;;;;;;10.30;6.53;;;9.40;94.70;;;;;;4916441;29;20468;-74
2020/12/15 12:39:57;;;;;;;12.30;6.53;;;9.40;94.60;;;;;;4918487;29;20191;-74
2020/12/15 12:42:23;;;;;;;14.67;7.27;;;9.30;95.00;;;;;;4918141;29;20444;-74
2020/12/15 12:44:48;;;;;;;13.13;7.23;;;9.30;95.10;;;;;;4917453;29;20574;-74
2020/12/15 12:47:14;;;;;;;12.40;7.20;;;9.30;95.30;;;;;;4917699;29;20184;-74
2020/12/15 12:49:40;;;;;;;12.53;7.17;;;9.30;95.50;;;;;;4917349;29;20265;-74
2020/12/15 12:52:06;;;;;;;12.60;6.33;;;9.20;95.80;;;;;;4917642;29;20440;-74
2020/12/15 12:54:31;;;;;;;12.00;7.40;;;9.30;95.70;;;;;;4918776;29;20257;-74
2020/12/15 12:56:57;;;;;;;14.63;6.97;;;9.30;95.90;;;;;;4917899;29;20216;-74
2020/12/15 12:59:22;;;;;;;12.20;7.43;;;9.40;95.80;;;;;;4917754;29;20192;-74
2020/12/15 13:01:48;;;;;;;16.13;7.80;;;9.40;96.00;;;;;;4917461;29;20220;-73
2020/12/15 13:04:14;;;;;;;12.63;7.00;;;9.50;95.80;;;;;;4918759;29;20183;-74
2020/12/15 13:06:40;;;;;;;15.40;8.40;;;9.50;95.50;;;;;;4917878;29;20196;-74
2020/12/15 13:09:05;;;;;;;13.63;7.63;;;9.60;95.90;;;;;;4917971;29;20268;-74
2020/12/15 13:11:32;;;;;;;13.40;7.77;;;9.60;95.80;;;;;;4917835;29;20216;-74
2020/12/15 13:13:57;;;;;;;19.77;8.30;;;9.60;95.80;;;;;;4918085;29;20232;-74
2020/12/15 13:16:24;;;;;;;16.40;8.40;;;9.60;95.80;;;;;;4917822;29;20425;-74
2020/12/15 13:18:50;;;;;;;14.53;8.00;;;9.60;95.90;;;;;;4917580;29;20184;-74
2020/12/15 13:21:16;;;;;;;14.97;7.73;;;9.60;96.10;;;;;;4917633;29;20504;-74
2020/12/15 13:23:42;;;;;;;17.60;8.60;;;9.60;95.80;;;;;;4918863;29;20651;-74
2020/12/15 13:26:15;;;;;;;13.90;8.27;;;9.60;96.10;;;;;;4917683;29;20453;-74
2020/12/15 13:28:41;;;;;;;15.10;8.10;;;9.60;96.00;;;;;;4917490;29;20448;-74
2020/12/15 13:31:08;;;;;;;15.47;8.53;;;9.60;96.40;;;;;;4917424;29;20548;-74
2020/12/15 13:33:34;;;;;;;16.17;8.43;;;9.60;96.50;;;;;;4917529;29;20496;-74
2020/12/15 13:36:00;;;;;;;18.27;9.07;;;9.50;96.80;;;;;;4913559;29;20998;-77
2020/12/15 13:38:26;;;;;;;19.73;9.30;;;9.50;96.70;;;;;;4917090;29;20183;-77
2020/12/15 13:40:51;;;;;;;16.87;8.80;;;9.50;97.00;;;;;;4917414;29;20204;-76
2020/12/15 13:43:17;;;;;;;17.90;8.30;;;9.40;96.60;;;;;;4918655;29;20503;-75
2020/12/15 13:45:43;;;;;;;16.27;8.87;;;9.40;96.40;;;;;;4903745;29;20236;-75
2020/12/15 13:48:08;;;;;;;15.00;8.53;;;9.30;96.90;;;;;;4898521;29;20181;-76
2020/12/15 13:50:34;;;;;;;14.07;8.00;;;9.20;96.40;;;;;;4897893;29;20213;-77
2020/12/15 13:52:59;;;;;;;18.03;8.33;;;9.20;96.60;;;;;;4898409;29;20173;-78
2020/12/15 13:55:25;;;;;;;17.53;8.40;;;9.10;96.80;;;;;;4898429;29;20177;-76
2020/12/15 13:57:51;;;;;;;18.50;8.83;;;9.10;96.80;;;;;;4899673;29;20177;-77
2020/12/15 14:00:17;;;;;;;18.33;8.50;;;9.10;97.00;;;;;;4898276;29;20189;-75
2020/12/15 14:02:42;;;;;;;15.50;8.17;;;9.10;97.10;;;;;;4898217;29;20621;-72
2020/12/15 14:05:08;;;;;;;15.13;8.37;;;9.10;96.90;;;;;;4898998;29;20679;-72
2020/12/15 14:07:35;;;;;;;15.00;7.93;;;9.10;97.00;;;;;;4898056;29;20177;-72
2020/12/15 14:10:05;;;;;;;16.30;8.43;;;9.00;96.90;;;;;;4897862;29;20200;-73
2020/12/15 14:12:35;;;;;;;17.13;9.50;;;9.00;97.30;;;;;;4898088;29;20429;-76
2020/12/15 14:15:01;;;;;;;20.80;9.93;;;9.00;97.30;;;;;;4897908;29;20418;-73
2020/12/15 14:17:27;;;;;;;16.27;8.17;;;9.00;97.00;;;;;;4899239;29;20468;-73
2020/12/15 14:19:53;;;;;;;16.53;7.97;;;9.00;97.00;;;;;;4897670;29;20421;-73
2020/12/15 14:22:19;;;;;;;12.03;7.40;;;9.00;97.00;;;;;;4897595;29;20454;-73
2020/12/15 14:24:45;;;;;;;23.60;8.53;;;8.90;97.10;;;;;;4897551;29;20193;-73
2020/12/15 14:27:10;;;;;;;14.70;7.83;;;8.90;97.20;;;;;;4897844;29;20189;-73
2020/12/15 14:29:37;;;;;;;19.40;9.60;;;8.90;97.30;;;;;;4898545;29;20192;-73
2020/12/15 14:32:03;;;;;;;16.53;8.17;;;8.90;97.30;;;;;;4897307;29;20654;-73
2020/12/15 14:34:28;;;;;;;14.20;7.53;;;8.90;97.30;;;;;;4897286;29;20425;-73
2020/12/15 14:37:00;;;;;;;17.43;8.33;;;8.90;97.30;;;;;;4913486;29;20413;-73
2020/12/15 14:39:27;;;;;;;16.97;8.17;;;8.90;97.30;;;;;;4917770;29;20173;-73
2020/12/15 14:41:53;;;;;;;17.63;9.40;;;8.80;97.30;;;;;;4916139;29;20433;-73
2020/12/15 14:44:19;;;;;;;17.40;7.77;;;8.80;97.30;;;;;;4915856;29;20417;-73
2020/12/15 14:46:49;;;;;;;14.07;8.40;;;8.80;97.30;;;;;;4916176;29;20496;-73
2020/12/15 14:49:16;;;;;;;13.83;8.00;;;8.80;97.30;;;;;;4917738;29;20431;-73
2020/12/15 14:51:50;;;;;;;14.50;8.60;;;8.80;97.30;;;;;;4915745;29;20547;-73
2020/12/15 14:54:18;;;;;;;15.83;8.20;;;8.80;97.30;;;;;;4915690;29;20420;-73
2020/12/15 14:56:44;;;;;;;14.97;9.07;;;8.80;97.30;;;;;;4915898;29;20425;-73
2020/12/15 14:59:11;;;;;;;13.73;8.10;;;8.80;97.30;;;;;;4917181;29;20429;-73
2020/12/15 15:01:37;;;;;;;15.20;8.40;;;8.80;97.30;;;;;;4899205;29;20967;-73
2020/12/15 15:04:03;;;;;;;17.23;9.10;;;8.80;97.30;;;;;;4917009;29;20997;-73
2020/12/15 15:06:30;;;;;;;17.23;9.10;;;8.80;97.30;;;;;;4916957;29;20436;-73
2020/12/15 15:08:56;;;;;;;16.00;8.30;;;8.70;97.30;;;;;;4915988;29;20922;-73
2020/12/15 15:11:22;;;;;;;23.03;9.90;;;8.70;97.30;;;;;;4915425;29;20528;-73
2020/12/15 15:13:49;;;;;;;17.00;8.33;;;8.70;97.30;;;;;;4909479;29;20496;-73
2020/12/15 15:16:15;;;;;;;17.23;9.07;;;8.70;97.30;;;;;;4902805;29;20853;-73
2020/12/15 15:18:41;;;;;;;16.60;9.00;;;8.70;97.30;;;;;;4896902;29;20421;-74
2020/12/15 15:21:07;;;;;;;15.83;8.40;;;8.80;97.30;;;;;;4896446;29;20445;-74
2020/12/15 15:23:33;;;;;;;18.40;9.60;;;8.80;97.30;;;;;;4897899;29;20418;-73
2020/12/15 15:25:59;;;;;;;17.13;9.63;;;8.80;97.30;;;;;;4896804;29;20421;-73
2020/12/15 15:28:25;;;;;;;16.87;9.47;;;8.70;97.30;;;;;;4896798;29;20425;-73
2020/12/15 15:30:50;;;;;;;23.57;9.73;;;8.70;97.30;;;;;;4896582;29;20300;-73
2020/12/15 15:33:17;;;;;;;17.83;9.27;;;8.70;97.30;;;;;;4897848;29;20666;-73
2020/12/15 15:35:52;;;;;;;18.87;9.60;;;8.70;97.30;;;;;;4904755;29;20177;-74
2020/12/15 15:38:18;;;;;;;15.67;9.23;;;8.70;97.30;;;;;;4915450;29;20456;-73
2020/12/15 15:40:44;;;;;;;23.03;10.10;;;8.70;97.30;;;;;;4915426;29;20492;-73
2020/12/15 15:43:10;;;;;;;19.60;10.07;;;8.60;97.30;;;;;;4915308;29;20421;-74
2020/12/15 15:45:36;;;;;;;16.53;10.00;;;8.60;97.30;;;;;;4916772;29;20176;-74
2020/12/15 15:48:01;;;;;;;18.33;9.83;;;8.60;97.30;;;;;;4915616;29;20217;-74
2020/12/15 15:50:27;;;;;;;17.73;9.90;;;8.50;97.30;;;;;;4915374;29;20620;-73
2020/12/15 15:52:53;;;;;;;20.47;9.80;;;8.50;97.30;;;;;;4915357;29;20270;-74
2020/12/15 15:55:18;;;;;;;20.40;10.33;;;8.50;97.30;;;;;;4915199;29;20552;-73
2020/12/15 15:57:44;;;;;;;17.53;10.10;;;8.40;97.30;;;;;;4915375;29;20217;-74
2020/12/15 16:00:10;;;;;;;20.77;9.60;;;8.40;97.30;;;;;;4915420;29;20204;-73
2020/12/15 16:02:35;;;;;;;20.10;10.03;;;8.40;97.30;;;;;;4915150;29;20220;-74
2020/12/15 16:05:01;;;;;;;17.50;9.17;;;8.40;97.30;;;;;;4915242;29;20202;-73
2020/12/15 16:07:27;;;;;;;18.83;9.73;;;8.40;97.30;;;;;;4915325;29;20340;-73
2020/12/15 16:09:52;;;;;;;16.93;9.43;;;8.40;97.30;;;;;;4915256;29;20184;-73
2020/12/15 16:12:18;;;;;;;21.23;9.37;;;8.50;97.30;;;;;;4916378;29;20197;-73
2020/12/15 16:14:44;;;;;;;19.23;9.60;;;8.50;97.30;;;;;;4918780;29;20205;-73
2020/12/15 16:17:09;;;;;;;18.83;9.83;;;8.50;97.30;;;;;;4919959;29;20292;-74
2020/12/15 16:19:35;;;;;;;19.10;10.57;;;8.50;97.30;;;;;;4918925;29;20181;-74
2020/12/15 16:22:01;;;;;;;21.17;9.87;;;8.50;97.30;;;;;;4918530;29;20252;-74
2020/12/15 16:24:26;;;;;;;18.60;9.33;;;8.50;97.30;;;;;;4918382;29;20185;-73
2020/12/15 16:26:52;;;;;;;19.20;9.80;;;8.50;97.30;;;;;;4918557;29;20185;-73
2020/12/15 16:29:19;;;;;;;19.40;10.10;;;8.50;97.30;;;;;;4918592;29;20275;-73
2020/12/15 16:31:54;;;;;;;18.10;10.37;;;8.50;97.30;;;;;;4919664;29;20243;-73
2020/12/15 16:34:20;;;;;;;21.57;10.50;;;8.50;97.30;;;;;;4918428;29;20416;-73
2020/12/15 16:36:52;;;;;;;22.20;11.40;;;8.50;97.30;;;;;;4918272;29;20428;-73
2020/12/15 16:39:18;;;;;;;21.33;10.77;;;8.40;97.30;;;;;;4918414;29;20418;-73
2020/12/15 16:41:44;;;;;;;21.20;10.97;;;8.40;97.30;;;;;;4918228;29;20436;-73
2020/12/15 16:44:10;;;;;;;23.67;11.30;;;8.40;97.30;;;;;;4918211;29;20428;-74
2020/12/15 16:46:37;;;;;;;20.10;11.20;;;8.30;97.30;;;;;;4918401;29;20425;-73
2020/12/15 16:49:03;;;;;;;19.40;11.30;;;8.20;97.30;;;;;;4918413;29;20412;-74
2020/12/15 16:51:28;;;;;;;20.50;10.70;;;8.20;97.30;;;;;;4917975;29;20472;-74
2020/12/15 16:53:54;;;;;;;20.90;11.23;;;8.10;97.30;;;;;;4918046;29;20429;-74
2020/12/15 16:56:20;;;;;;;26.13;11.77;;;8.00;97.30;;;;;;4919360;29;20593;-74
2020/12/15 16:58:45;;;;;;;21.13;10.80;;;8.00;97.30;;;;;;4919299;29;20195;-74
2020/12/15 17:01:11;;;;;;;25.97;12.23;;;8.00;97.30;;;;;;4917883;29;20299;-74
2020/12/15 17:03:37;;;;;;;22.00;11.00;;;7.90;97.30;;;;;;4917890;29;20180;-74
2020/12/15 17:06:02;;;;;;;22.60;12.20;;;7.90;97.30;;;;;;4919118;29;20728;-74
2020/12/15 17:08:29;;;;;;;23.03;11.50;;;7.90;97.30;;;;;;4917966;29;20184;-74
2020/12/15 17:10:59;;;;;;;21.37;10.63;;;7.80;97.30;;;;;;4917773;29;20279;-74
2020/12/15 17:13:27;;;;;;;24.43;11.50;;;7.80;97.30;;;;;;4918797;29;20945;-74
2020/12/15 17:15:53;;;;;;;23.93;11.60;;;7.80;97.30;;;;;;4919160;29;20464;-74
2020/12/15 17:18:19;;;;;;;26.10;11.97;;;7.80;97.30;;;;;;4917726;29;20425;-74
2020/12/15 17:20:44;;;;;;;31.03;12.50;;;7.70;97.30;;;;;;4917771;29;20210;-74
2020/12/15 17:23:10;;;;;;;23.53;11.70;;;7.70;97.30;;;;;;4917093;29;20612;-74
2020/12/15 17:25:35;;;;;;;23.37;11.87;;;7.70;97.30;;;;;;4917440;29;20185;-74
2020/12/15 17:28:02;;;;;;;20.50;10.10;;;7.70;97.30;;;;;;4917590;29;20185;-74
2020/12/15 17:30:28;;;;;;;24.47;12.00;;;7.70;97.30;;;;;;4917423;29;20302;-74
2020/12/15 17:32:54;;;;;;;28.60;11.23;;;7.70;97.30;;;;;;4917409;29;20463;-74
2020/12/15 17:35:22;;;;;;;27.23;13.80;;;7.70;97.30;;;;;;4917752;29;20550;-74
2020/12/15 17:37:48;;;;;;;22.60;11.17;;;7.70;97.30;;;;;;4918656;29;20452;-74
2020/12/15 17:40:14;;;;;;;21.13;11.50;;;7.70;97.30;;;;;;4918548;29;20428;-74
2020/12/15 17:42:39;;;;;;;23.30;11.43;;;7.70;97.30;;;;;;4917447;29;20428;-74
2020/12/15 17:45:05;;;;;;;25.73;13.03;;;7.70;97.30;;;;;;4917200;29;20196;-74
2020/12/15 17:47:31;;;;;;;25.97;12.83;;;7.70;97.30;;;;;;4917142;29;20184;-74
2020/12/15 17:49:56;;;;;;;21.90;11.30;;;7.70;97.30;;;;;;4917153;29;20192;-74
2020/12/15 17:52:24;;;;;;;22.30;11.20;;;7.70;97.30;;;;;;4916936;29;20218;-74
2020/12/15 17:54:50;;;;;;;25.73;12.33;;;7.70;97.30;;;;;;4916980;29;20189;-74
2020/12/15 17:57:16;;;;;;;21.60;11.80;;;7.70;97.30;;;;;;4916914;29;20784;-74
2020/12/15 17:59:44;;;;;;;22.47;11.77;;;7.70;97.30;;;;;;4917234;29;20271;-74
2020/12/15 18:02:10;;;;;;;24.50;11.50;;;7.70;97.30;;;;;;4917935;29;20208;-74
2020/12/15 18:04:36;;;;;;;20.47;11.23;;;7.70;97.30;;;;;;4916745;29;20417;-74
2020/12/15 18:07:02;;;;;;;23.27;12.27;;;7.70;97.30;;;;;;4918112;29;20432;-74
2020/12/15 18:09:28;;;;;;;24.93;11.10;;;7.70;97.30;;;;;;4916977;29;20185;-74
2020/12/15 18:11:54;;;;;;;21.90;11.70;;;7.70;97.30;;;;;;4916774;29;20220;-74
2020/12/15 18:14:20;;;;;;;23.80;12.90;;;7.70;97.30;;;;;;4916458;29;20185;-74
2020/12/15 18:16:49;;;;;;;20.67;11.83;;;7.70;97.30;;;;;;4917941;29;20468;-74
2020/12/15 18:19:15;;;;;;;27.33;11.70;;;7.70;97.30;;;;;;4916690;29;20428;-74
2020/12/15 18:21:41;;;;;;;18.17;9.73;;;7.70;97.30;;;;;;4916670;29;20449;-74
2020/12/15 18:24:07;;;;;;;20.97;11.17;;;7.70;97.30;;;;;;4916416;29;20215;-75
2020/12/15 18:26:33;;;;;;;24.90;12.23;;;7.70;97.30;;;;;;4916665;29;20456;-74
2020/12/15 18:29:00;;;;;;;20.83;10.70;;;7.60;97.30;;;;;;4916448;29;20425;-74
2020/12/15 18:31:29;;;;;;;23.80;10.40;;;7.60;97.30;;;;;;4916373;29;20543;-74
2020/12/15 18:33:55;;;;;;;23.00;11.10;;;7.60;97.30;;;;;;4916163;29;20428;-73
2020/12/15 18:36:21;;;;;;;23.13;11.17;;;7.60;97.30;;;;;;4917531;29;20427;-74
2020/12/15 18:38:46;;;;;;;27.17;12.07;;;7.60;97.30;;;;;;4917606;29;20417;-74
2020/12/15 18:41:12;;;;;;;20.93;11.13;;;7.50;97.30;;;;;;4916240;29;20328;-73
2020/12/15 18:43:38;;;;;;;24.50;12.53;;;7.50;97.30;;;;;;4916003;29;20199;-73
2020/12/15 18:46:05;;;;;;;34.40;12.10;;;7.50;97.30;;;;;;4916189;29;20270;-74